createdAt,value
2023-03-16T00:03:05.453Z,36.10
2023-03-16T00:06:11.902Z,36.50
2023-03-16T00:09:17.531Z,41.13
2023-03-16T00:12:30.009Z,33.15
2023-03-16T00:15:36.427Z,29.92
2023-03-16T00:18:44.862Z,31.93
2023-03-16T00:21:50.294Z,25.82
2023-03-16T00:24:56.691Z,37.53
2023-03-16T00:28:02.849Z,27.93
2023-03-16T00:31:07.702Z,35.70
2023-03-16T00:34:13.671Z,32.55
2023-03-16T00:37:21.379Z,29.00
2023-03-16T00:40:29.765Z,26.42
2023-03-16T00:43:35.432Z,31.95
2023-03-16T00:46:42.507Z,28.30
2023-03-16T00:49:49.194Z,24.40
2023-03-16T00:52:56.041Z,31.27
2023-03-16T00:56:01.821Z,27.27
2023-03-16T00:59:08.625Z,19.40
2023-03-16T01:02:14.399Z,24.63
2023-03-16T01:05:23.266Z,34.30
2023-03-16T01:08:29.153Z,24.65
2023-03-16T01:11:36.728Z,33.05
2023-03-16T01:14:42.311Z,42.67
2023-03-16T01:17:48.812Z,31.75
2023-03-16T01:20:57.317Z,33.48
2023-03-16T01:24:05.407Z,26.02
2023-03-16T01:27:11.852Z,29.37
2023-03-16T01:30:19.267Z,41.90
2023-03-16T01:33:25.028Z,27.52
2023-03-16T01:36:32.230Z,40.17
2023-03-16T01:39:38.258Z,39.27
2023-03-16T01:42:45.390Z,32.85
2023-03-16T01:46:25.500Z,39.23
2023-03-16T01:49:41.758Z,28.73
2023-03-16T01:52:48.834Z,30.02
2023-03-16T01:55:54.359Z,37.48
2023-03-16T01:59:00.696Z,38.70
2023-03-16T02:02:08.454Z,37.58
2023-03-16T02:05:24.239Z,40.92
2023-03-16T02:08:16.528Z,30.68
2023-03-16T02:11:23.432Z,43.90
2023-03-16T02:14:31.253Z,35.92
2023-03-16T02:17:43.330Z,28.95
2023-03-16T02:21:00.804Z,36.03
2023-03-16T02:24:06.660Z,36.45
2023-03-16T02:27:17.057Z,44.75
2023-03-16T02:30:33.057Z,38.95
2023-03-16T02:33:38.044Z,35.52
2023-03-16T02:36:43.994Z,35.88
2023-03-16T02:39:52.093Z,42.65
2023-03-16T02:43:01.813Z,36.40
2023-03-16T02:46:13.324Z,43.90
2023-03-16T02:49:32.038Z,32.73
2023-03-16T02:52:37.689Z,51.15
2023-03-16T02:55:42.376Z,38.23
2023-03-16T02:58:48.188Z,39.15
2023-03-16T03:01:48.107Z,38.10
2023-03-16T03:04:55.365Z,42.67
2023-03-16T03:08:01.336Z,28.92
2023-03-16T03:11:07.146Z,33.78
2023-03-16T03:14:12.564Z,43.75
2023-03-16T03:17:21.832Z,32.50
2023-03-16T03:20:28.697Z,36.05
2023-03-16T03:23:35.042Z,38.42
2023-03-16T03:26:40.590Z,43.05
2023-03-16T03:29:48.911Z,46.55
2023-03-16T03:32:55.898Z,53.15
2023-03-16T03:36:12.653Z,49.10
2023-03-16T03:39:17.798Z,44.55
2023-03-16T03:42:24.314Z,37.00
2023-03-16T03:45:24.389Z,39.67
2023-03-16T03:48:31.710Z,46.00
2023-03-16T03:51:37.862Z,46.73
2023-03-16T03:54:45.962Z,44.60
2023-03-16T03:57:44.630Z,48.02
2023-03-16T04:00:51.202Z,35.73
2023-03-16T04:03:57.064Z,45.15
2023-03-16T04:07:02.620Z,45.95
2023-03-16T04:10:07.727Z,45.70
2023-03-16T04:13:14.657Z,48.80
2023-03-16T04:16:22.507Z,55.35
2023-03-16T04:19:29.552Z,38.58
2023-03-16T04:22:37.597Z,56.58
2023-03-16T04:25:45.161Z,46.33
2023-03-16T04:28:53.824Z,41.55
2023-03-16T04:32:00.530Z,52.35
2023-03-16T04:35:02.466Z,43.48
2023-03-16T04:37:53.431Z,49.95
2023-03-16T04:40:47.922Z,50.48
2023-03-16T04:43:35.947Z,46.75
2023-03-16T04:46:30.519Z,54.83
2023-03-16T04:49:24.686Z,50.63
2023-03-16T04:52:29.225Z,46.80
2023-03-16T04:55:35.146Z,44.30
2023-03-16T04:58:41.963Z,48.08
2023-03-16T05:01:47.474Z,46.15
2023-03-16T05:04:52.953Z,50.17
2023-03-16T05:07:59.518Z,42.40
2023-03-16T05:11:12.353Z,49.35
2023-03-16T05:14:19.889Z,52.03
2023-03-16T05:17:27.709Z,45.03
2023-03-16T05:20:33.638Z,41.92
2023-03-16T05:23:39.581Z,48.48
2023-03-16T05:26:45.736Z,42.23
2023-03-16T05:29:53.549Z,45.85
2023-03-16T05:33:01.507Z,42.75
2023-03-16T05:36:10.284Z,52.95
2023-03-16T05:39:17.648Z,42.98
2023-03-16T05:42:23.112Z,44.55
2023-03-16T05:45:30.554Z,40.60
2023-03-16T05:48:38.525Z,41.00
2023-03-16T05:51:46.384Z,45.98
2023-03-16T05:54:54.332Z,42.88
2023-03-16T05:57:59.764Z,54.95
2023-03-16T06:01:06.279Z,39.78
2023-03-16T06:04:14.479Z,54.58
2023-03-16T06:07:20.112Z,51.05
2023-03-16T06:10:26.838Z,38.50
2023-03-16T06:13:36.742Z,43.13
2023-03-16T06:16:43.279Z,185.67
2023-03-16T06:19:49.443Z,50.20
2023-03-16T06:22:56.713Z,57.50
2023-03-16T06:26:06.388Z,51.15
2023-03-16T06:29:13.527Z,55.48
2023-03-16T06:32:20.189Z,184.18
2023-03-16T06:35:26.157Z,79.92
2023-03-16T06:38:27.521Z,56.20
2023-03-16T06:41:35.702Z,47.20
2023-03-16T06:44:43.493Z,56.60
2023-03-16T06:47:50.687Z,44.00
2023-03-16T06:50:56.226Z,42.73
2023-03-16T06:54:01.506Z,36.20
2023-03-16T06:57:10.528Z,41.90
2023-03-16T07:00:16.438Z,57.17
2023-03-16T07:03:22.069Z,32.60
2023-03-16T07:06:29.927Z,36.13
2023-03-16T07:09:38.699Z,40.70
2023-03-16T07:12:43.838Z,43.05
2023-03-16T07:15:51.993Z,38.42
2023-03-16T07:18:58.825Z,34.75
2023-03-16T07:22:05.072Z,43.08
2023-03-16T07:25:12.563Z,41.80
2023-03-16T07:28:20.437Z,45.83
2023-03-16T07:31:29.533Z,41.20
2023-03-16T07:34:37.108Z,33.70
2023-03-16T07:37:44.915Z,36.00
2023-03-16T07:40:53.308Z,46.37
2023-03-16T07:44:00.564Z,41.42
2023-03-16T07:47:08.014Z,43.78
2023-03-16T07:50:15.370Z,42.17
2023-03-16T07:53:22.842Z,42.98
2023-03-16T07:56:47.830Z,40.58
2023-03-16T07:59:37.255Z,36.35
2023-03-16T08:02:45.304Z,40.65
2023-03-16T08:05:51.534Z,30.02
2023-03-16T08:08:59.634Z,42.75
2023-03-16T08:12:06.859Z,53.70
2023-03-16T08:15:13.467Z,40.80
2023-03-16T08:18:20.470Z,60.33
2023-03-16T08:21:28.700Z,39.45
2023-03-16T08:24:34.516Z,42.03
2023-03-16T08:27:42.256Z,40.25
2023-03-16T08:30:48.455Z,37.50
2023-03-16T08:34:01.361Z,36.28
2023-03-16T08:37:09.470Z,43.58
2023-03-16T08:40:25.080Z,33.85
2023-03-16T08:43:32.671Z,39.78
2023-03-16T08:46:38.655Z,39.10
2023-03-16T08:49:45.071Z,38.38
2023-03-16T08:52:50.836Z,38.95
2023-03-16T08:55:56.316Z,38.85
2023-03-16T08:59:02.270Z,46.33
2023-03-16T09:02:07.017Z,32.45
2023-03-16T09:05:12.786Z,37.10
2023-03-16T09:08:19.443Z,28.15
2023-03-16T09:11:26.986Z,26.17
2023-03-16T09:14:32.748Z,29.75
2023-03-16T09:17:39.149Z,39.40
2023-03-16T09:20:37.859Z,32.88
2023-03-16T09:23:48.471Z,33.00
2023-03-16T09:26:53.688Z,21.77
2023-03-16T09:30:01.605Z,24.32
2023-03-16T09:33:07.536Z,25.02
2023-03-16T09:36:13.286Z,27.73
2023-03-16T09:39:20.416Z,20.02
2023-03-16T09:42:50.460Z,21.37
2023-03-16T09:46:18.142Z,27.30
2023-03-16T09:49:11.879Z,14.13
2023-03-16T09:52:48.476Z,22.35
2023-03-16T09:55:54.975Z,25.12
2023-03-16T09:59:00.566Z,18.48
2023-03-16T10:02:48.085Z,16.85
2023-03-16T10:05:53.981Z,25.85
2023-03-16T10:09:02.106Z,29.65
2023-03-16T10:12:11.079Z,24.35
2023-03-16T10:15:29.291Z,17.65
2023-03-16T10:18:33.354Z,27.98
2023-03-16T10:21:39.620Z,25.62
2023-03-16T10:25:00.070Z,29.77
2023-03-16T10:28:10.291Z,22.07
2023-03-16T10:31:16.526Z,39.00
2023-03-16T10:34:21.650Z,24.23
2023-03-16T10:37:22.556Z,21.25
2023-03-16T10:40:32.056Z,32.70
2023-03-16T10:43:39.129Z,18.98
2023-03-16T10:47:06.757Z,15.58
2023-03-16T10:50:12.560Z,40.90
2023-03-16T10:53:19.633Z,76.33
2023-03-16T10:56:35.029Z,24.92
2023-03-16T10:59:45.990Z,27.30
2023-03-16T11:02:52.958Z,32.75
2023-03-16T11:05:59.635Z,21.55
2023-03-16T11:09:00.793Z,17.40
2023-03-16T11:12:07.010Z,29.05
2023-03-16T11:15:26.123Z,21.20
2023-03-16T11:18:42.388Z,23.27
2023-03-16T11:22:31.415Z,24.43
2023-03-16T11:25:54.904Z,22.13
2023-03-16T11:29:06.923Z,25.65
2023-03-16T11:32:15.455Z,27.05
2023-03-16T11:35:30.077Z,27.37
2023-03-16T11:38:40.731Z,25.40
2023-03-16T11:42:04.557Z,26.95
2023-03-16T11:45:55.630Z,28.47
2023-03-16T11:49:50.984Z,17.65
2023-03-16T11:53:44.183Z,132.52
2023-03-16T11:56:57.703Z,114.08
2023-03-16T12:00:08.018Z,62.30
2023-03-16T12:03:43.571Z,93.33
2023-03-16T12:07:18.207Z,29.23
2023-03-16T12:10:33.084Z,24.98
2023-03-16T12:14:07.603Z,32.08
2023-03-16T12:17:20.383Z,19.32
2023-03-16T12:20:36.098Z,21.45
2023-03-16T12:23:54.861Z,18.92
2023-03-16T12:27:00.788Z,25.30
2023-03-16T12:30:30.484Z,26.80
2023-03-16T12:33:56.983Z,20.25
2023-03-16T12:37:21.166Z,59.42
2023-03-16T12:40:45.840Z,28.57
2023-03-16T12:44:11.456Z,27.27
2023-03-16T12:47:39.528Z,21.23
2023-03-16T12:50:45.529Z,115.55
2023-03-16T12:54:07.271Z,35.58
2023-03-16T12:57:21.910Z,20.82
2023-03-16T13:00:28.949Z,29.23
2023-03-16T13:03:36.728Z,40.58
2023-03-16T13:06:45.196Z,70.83
2023-03-16T13:09:52.958Z,35.50
2023-03-16T13:12:59.034Z,70.57
2023-03-16T13:16:06.499Z,31.05
2023-03-16T13:19:11.610Z,25.77
2023-03-16T13:22:55.075Z,24.75
2023-03-16T13:26:16.884Z,27.32
2023-03-16T13:29:41.357Z,31.85
2023-03-16T13:32:47.569Z,35.50
2023-03-16T13:35:52.805Z,18.82
2023-03-16T13:38:59.008Z,35.88
2023-03-16T13:42:35.023Z,26.05
2023-03-16T13:45:51.536Z,22.22
2023-03-16T13:48:58.475Z,27.67
2023-03-16T13:52:04.328Z,29.67
2023-03-16T13:55:16.341Z,30.08
2023-03-16T13:58:44.746Z,21.62
2023-03-16T14:01:49.592Z,28.62
2023-03-16T14:04:55.359Z,23.83
2023-03-16T14:07:57.820Z,25.12
2023-03-16T14:10:52.286Z,27.82
2023-03-16T14:13:59.252Z,26.37
2023-03-16T14:17:07.068Z,25.12
2023-03-16T14:20:14.713Z,23.38
2023-03-16T14:23:32.455Z,35.05
2023-03-16T14:26:39.413Z,35.92
2023-03-16T14:29:45.201Z,37.17
2023-03-16T14:32:51.078Z,41.25
2023-03-16T14:35:59.232Z,56.95
2023-03-16T14:39:06.798Z,85.77
2023-03-16T14:42:13.426Z,77.70
2023-03-16T14:45:22.391Z,93.55
2023-03-16T14:48:33.054Z,104.70
2023-03-16T14:51:39.635Z,87.42
2023-03-16T14:54:45.271Z,108.37
2023-03-16T14:57:53.803Z,128.75
2023-03-16T15:01:00.239Z,119.22
2023-03-16T15:04:05.609Z,100.02
2023-03-16T15:07:12.206Z,101.82
2023-03-16T15:10:40.474Z,101.65
2023-03-16T15:13:49.000Z,104.12
2023-03-16T15:16:55.881Z,103.55
2023-03-16T15:20:01.628Z,103.90
2023-03-16T15:23:08.501Z,101.82
2023-03-16T15:26:14.837Z,105.40
2023-03-16T15:29:24.935Z,126.92
2023-03-16T15:32:30.263Z,137.72
2023-03-16T15:35:35.752Z,140.20
2023-03-16T15:38:49.329Z,120.82
2023-03-16T15:41:55.190Z,122.02
2023-03-16T15:45:01.678Z,110.80
2023-03-16T15:48:01.816Z,103.58
2023-03-16T15:51:11.873Z,93.37
2023-03-16T15:54:13.135Z,93.65
2023-03-16T15:56:59.986Z,81.50
2023-03-16T15:59:54.475Z,73.40
2023-03-16T16:02:42.091Z,72.08
2023-03-16T16:05:42.094Z,84.83
2023-03-16T16:08:48.389Z,77.67
2023-03-16T16:11:54.754Z,82.27
2023-03-16T16:15:01.218Z,81.47
2023-03-16T16:18:20.888Z,83.72
2023-03-16T16:21:16.971Z,68.60
2023-03-16T16:24:24.307Z,85.60
2023-03-16T16:27:29.888Z,79.90
2023-03-16T16:30:38.827Z,74.82
2023-03-16T16:33:49.824Z,74.32
2023-03-16T16:36:56.548Z,69.55
2023-03-16T16:40:02.052Z,89.47
2023-03-16T16:43:07.967Z,83.60
2023-03-16T16:46:20.714Z,82.45
2023-03-16T16:49:41.445Z,76.47
2023-03-16T16:52:48.694Z,69.30
2023-03-16T16:55:54.242Z,60.58
2023-03-16T16:58:59.808Z,58.68
2023-03-16T17:02:06.399Z,53.55
2023-03-16T17:05:13.530Z,55.67
2023-03-16T17:08:21.421Z,42.53
2023-03-16T17:11:37.348Z,39.20
2023-03-16T17:14:36.432Z,40.40
2023-03-16T17:17:44.170Z,40.95
2023-03-16T17:20:51.929Z,45.43
2023-03-16T17:23:59.996Z,43.00
2023-03-16T17:27:13.915Z,31.27
2023-03-16T17:30:22.377Z,32.33
2023-03-16T17:33:28.763Z,32.00
2023-03-16T17:36:34.608Z,32.33
2023-03-16T17:39:45.521Z,26.15
2023-03-16T17:42:53.013Z,37.03
2023-03-16T17:46:00.614Z,40.00
2023-03-16T17:49:06.670Z,29.85
2023-03-16T17:52:13.135Z,29.23
2023-03-16T17:55:23.229Z,27.13
2023-03-16T17:58:43.220Z,32.25
2023-03-16T18:01:50.472Z,23.02
2023-03-16T18:04:56.587Z,25.70
2023-03-16T18:08:02.999Z,28.40
2023-03-16T18:11:12.715Z,30.95
2023-03-16T18:14:20.465Z,28.10
2023-03-16T18:17:43.281Z,32.08
2023-03-16T18:20:52.211Z,30.05
2023-03-16T18:23:57.992Z,31.00
2023-03-16T18:27:04.321Z,28.52
2023-03-16T18:30:09.818Z,31.40
2023-03-16T18:33:16.511Z,40.78
2023-03-16T18:36:34.616Z,37.38
2023-03-16T18:39:42.685Z,38.53
2023-03-16T18:42:47.533Z,41.50
2023-03-16T18:45:54.857Z,45.05
2023-03-16T18:49:00.644Z,39.75
2023-03-16T18:52:08.270Z,46.35
2023-03-16T18:55:14.484Z,40.80
2023-03-16T18:58:27.449Z,51.92
2023-03-16T19:01:47.332Z,48.98
2023-03-16T19:04:53.726Z,54.77
2023-03-16T19:08:03.740Z,54.67
2023-03-16T19:11:12.080Z,55.73
2023-03-16T19:14:20.905Z,65.28
2023-03-16T19:17:27.070Z,55.95
2023-03-16T19:20:40.045Z,48.38
2023-03-16T19:23:50.000Z,55.05
2023-03-16T19:26:56.854Z,52.65
2023-03-16T19:30:03.872Z,50.10
2023-03-16T19:33:09.601Z,45.23
2023-03-16T19:36:17.256Z,48.40
2023-03-16T19:39:27.989Z,44.25
2023-03-16T19:42:48.685Z,53.75
2023-03-16T19:45:54.955Z,50.70
2023-03-16T19:49:01.295Z,47.30
2023-03-16T19:52:07.561Z,40.20
2023-03-16T19:55:13.371Z,40.25
2023-03-16T19:58:18.578Z,49.20
2023-03-16T20:01:32.585Z,47.75
2023-03-16T20:04:39.889Z,55.10
2023-03-16T20:07:46.148Z,48.83
2023-03-16T20:10:51.896Z,48.75
2023-03-16T20:13:57.667Z,43.70
2023-03-16T20:17:04.218Z,42.38
2023-03-16T20:20:10.846Z,45.30
2023-03-16T20:23:12.285Z,38.95
2023-03-16T20:26:17.378Z,47.03
2023-03-16T20:29:33.614Z,49.15
2023-03-16T20:32:50.009Z,42.53
2023-03-16T20:35:57.893Z,44.25
2023-03-16T20:39:03.349Z,51.98
2023-03-16T20:42:09.791Z,51.53
2023-03-16T20:45:16.408Z,49.00
2023-03-16T20:48:31.998Z,54.80
2023-03-16T20:51:37.947Z,54.73
2023-03-16T20:54:44.324Z,60.55
2023-03-16T20:57:51.772Z,64.47
2023-03-16T21:00:58.709Z,61.77
2023-03-16T21:04:07.225Z,64.75
2023-03-16T21:07:12.021Z,62.30
2023-03-16T21:10:18.191Z,61.25
2023-03-16T21:13:38.211Z,72.95
2023-03-16T21:16:43.023Z,79.35
2023-03-16T21:19:48.241Z,79.40
2023-03-16T21:22:55.220Z,83.80
2023-03-16T21:26:13.957Z,85.97
2023-03-16T21:29:20.957Z,88.20
2023-03-16T21:32:37.931Z,96.37
2023-03-16T21:35:49.854Z,95.72
2023-03-16T21:38:55.361Z,92.72
2023-03-16T21:42:01.665Z,86.32
2023-03-16T21:45:08.246Z,84.17
2023-03-16T21:48:13.855Z,85.87
2023-03-16T21:51:28.628Z,87.47
2023-03-16T21:54:34.613Z,91.15
2023-03-16T21:57:41.197Z,90.80
2023-03-16T22:00:47.257Z,95.87
2023-03-16T22:03:53.908Z,85.38
2023-03-16T22:06:59.572Z,94.97
2023-03-16T22:10:05.324Z,99.83
2023-03-16T22:13:12.475Z,79.75
2023-03-16T22:16:22.822Z,76.37
2023-03-16T22:19:29.307Z,73.75
2023-03-16T22:22:29.182Z,74.12
2023-03-16T22:25:37.312Z,71.72
2023-03-16T22:28:43.573Z,72.55
2023-03-16T22:31:49.902Z,65.80
2023-03-16T22:34:52.537Z,63.10
2023-03-16T22:37:59.962Z,69.12
2023-03-16T22:41:06.904Z,61.60
2023-03-16T22:44:12.275Z,62.73
2023-03-16T22:47:16.859Z,62.58
2023-03-16T22:50:31.477Z,55.95
2023-03-16T22:53:40.460Z,59.40
2023-03-16T22:56:46.138Z,58.90
2023-03-16T22:59:52.810Z,65.87
2023-03-16T23:02:59.880Z,64.32
2023-03-16T23:06:09.055Z,65.78
2023-03-16T23:09:13.724Z,64.75
2023-03-16T23:12:20.785Z,69.90
2023-03-16T23:15:31.581Z,69.65
2023-03-16T23:18:39.261Z,68.00
2023-03-16T23:21:45.200Z,85.67
2023-03-16T23:24:50.847Z,67.37
2023-03-16T23:27:56.459Z,70.70
2023-03-16T23:31:01.724Z,78.72
2023-03-16T23:34:09.103Z,78.90
2023-03-16T23:37:15.851Z,88.30
2023-03-16T23:40:22.691Z,82.55
2023-03-16T23:43:22.092Z,76.55
2023-03-16T23:46:31.751Z,91.90
2023-03-16T23:49:40.798Z,95.12
2023-03-16T23:52:45.591Z,89.65
2023-03-16T23:55:43.993Z,83.87
2023-03-16T23:58:51.103Z,86.45
